sensor_id;sensor_type;location;lat;lon;timestamp;P1;durP1;ratioP1;P2;durP2;ratioP2
69678;SDS011;56915;52.046;4.854;2023-04-25T00:00:51;14.07;;;2.70;;
69678;SDS011;56915;52.046;4.854;2023-04-25T00:03:18;13.18;;;2.40;;
69678;SDS011;56915;52.046;4.854;2023-04-25T00:05:47;17.20;;;2.33;;
69678;SDS011;56915;52.046;4.854;2023-04-25T00:08:15;12.05;;;2.90;;
69678;SDS011;56915;52.046;4.854;2023-04-25T00:10:42;16.88;;;2.60;;
69678;SDS011;56915;52.046;4.854;2023-04-25T00:13:09;12.70;;;2.60;;
69678;SDS011;56915;52.046;4.854;2023-04-25T00:15:37;14.07;;;2.85;;
69678;SDS011;56915;52.046;4.854;2023-04-25T00:18:04;13.85;;;2.53;;
69678;SDS011;56915;52.046;4.854;2023-04-25T00:20:32;12.00;;;2.33;;
69678;SDS011;56915;52.046;4.854;2023-04-25T00:22:59;13.02;;;2.40;;
69678;SDS011;56915;52.046;4.854;2023-04-25T00:25:26;11.83;;;2.37;;
69678;SDS011;56915;52.046;4.854;2023-04-25T00:27:53;13.73;;;2.50;;
69678;SDS011;56915;52.046;4.854;2023-04-25T00:30:19;11.45;;;2.20;;
69678;SDS011;56915;52.046;4.854;2023-04-25T00:32:46;13.73;;;2.20;;
69678;SDS011;56915;52.046;4.854;2023-04-25T00:35:13;9.57;;;2.53;;
69678;SDS011;56915;52.046;4.854;2023-04-25T00:37:40;17.80;;;2.33;;
69678;SDS011;56915;52.046;4.854;2023-04-25T00:40:07;14.88;;;2.10;;
69678;SDS011;56915;52.046;4.854;2023-04-25T00:42:34;9.32;;;2.40;;
69678;SDS011;56915;52.046;4.854;2023-04-25T00:45:04;13.43;;;2.30;;
69678;SDS011;56915;52.046;4.854;2023-04-25T00:47:32;11.68;;;2.30;;
69678;SDS011;56915;52.046;4.854;2023-04-25T00:49:59;14.70;;;2.90;;
69678;SDS011;56915;52.046;4.854;2023-04-25T00:52:26;13.80;;;2.53;;
69678;SDS011;56915;52.046;4.854;2023-04-25T00:54:53;18.40;;;2.55;;
69678;SDS011;56915;52.046;4.854;2023-04-25T00:57:20;15.50;;;2.70;;
69678;SDS011;56915;52.046;4.854;2023-04-25T00:59:47;13.15;;;2.63;;
69678;SDS011;56915;52.046;4.854;2023-04-25T01:02:16;14.90;;;3.20;;
69678;SDS011;56915;52.046;4.854;2023-04-25T01:04:43;11.32;;;2.65;;
69678;SDS011;56915;52.046;4.854;2023-04-25T01:07:10;9.60;;;2.00;;
69678;SDS011;56915;52.046;4.854;2023-04-25T01:09:37;8.65;;;2.22;;
69678;SDS011;56915;52.046;4.854;2023-04-25T01:12:04;13.43;;;2.50;;
69678;SDS011;56915;52.046;4.854;2023-04-25T01:14:31;13.97;;;2.60;;
69678;SDS011;56915;52.046;4.854;2023-04-25T01:16:58;12.50;;;2.25;;
69678;SDS011;56915;52.046;4.854;2023-04-25T01:19:25;10.75;;;2.45;;
69678;SDS011;56915;52.046;4.854;2023-04-25T01:21:52;10.52;;;2.20;;
69678;SDS011;56915;52.046;4.854;2023-04-25T01:24:19;10.50;;;2.70;;
69678;SDS011;56915;52.046;4.854;2023-04-25T01:26:47;13.70;;;2.40;;
69678;SDS011;56915;52.046;4.854;2023-04-25T01:29:18;10.13;;;1.98;;
69678;SDS011;56915;52.046;4.854;2023-04-25T01:31:45;8.73;;;2.10;;
69678;SDS011;56915;52.046;4.854;2023-04-25T01:34:12;9.57;;;2.08;;
69678;SDS011;56915;52.046;4.854;2023-04-25T01:36:39;6.30;;;1.95;;
69678;SDS011;56915;52.046;4.854;2023-04-25T01:39:07;8.50;;;2.00;;
69678;SDS011;56915;52.046;4.854;2023-04-25T01:41:34;8.80;;;2.47;;
69678;SDS011;56915;52.046;4.854;2023-04-25T01:44:02;9.60;;;1.90;;
69678;SDS011;56915;52.046;4.854;2023-04-25T01:46:29;10.25;;;2.00;;
69678;SDS011;56915;52.046;4.854;2023-04-25T01:48:56;11.90;;;2.08;;
69678;SDS011;56915;52.046;4.854;2023-04-25T01:51:23;12.13;;;2.33;;
69678;SDS011;56915;52.046;4.854;2023-04-25T01:53:50;10.70;;;1.70;;
69678;SDS011;56915;52.046;4.854;2023-04-25T01:56:18;15.13;;;2.00;;
69678;SDS011;56915;52.046;4.854;2023-04-25T01:58:45;11.82;;;2.22;;
69678;SDS011;56915;52.046;4.854;2023-04-25T02:01:12;9.88;;;2.25;;
69678;SDS011;56915;52.046;4.854;2023-04-25T02:03:39;7.50;;;2.20;;
69678;SDS011;56915;52.046;4.854;2023-04-25T02:06:06;13.05;;;2.28;;
69678;SDS011;56915;52.046;4.854;2023-04-25T02:08:32;7.38;;;2.00;;
69678;SDS011;56915;52.046;4.854;2023-04-25T02:10:59;11.95;;;2.00;;
69678;SDS011;56915;52.046;4.854;2023-04-25T02:13:26;9.38;;;2.10;;
69678;SDS011;56915;52.046;4.854;2023-04-25T02:15:53;13.97;;;2.10;;
69678;SDS011;56915;52.046;4.854;2023-04-25T02:18:20;9.60;;;1.77;;
69678;SDS011;56915;52.046;4.854;2023-04-25T02:20:48;8.55;;;2.00;;
69678;SDS011;56915;52.046;4.854;2023-04-25T02:23:15;10.43;;;2.25;;
69678;SDS011;56915;52.046;4.854;2023-04-25T02:25:42;8.70;;;2.28;;
69678;SDS011;56915;52.046;4.854;2023-04-25T02:28:09;11.63;;;2.20;;
69678;SDS011;56915;52.046;4.854;2023-04-25T02:30:36;11.30;;;2.10;;
69678;SDS011;56915;52.046;4.854;2023-04-25T02:33:03;11.35;;;2.33;;
69678;SDS011;56915;52.046;4.854;2023-04-25T02:35:30;13.35;;;2.53;;
69678;SDS011;56915;52.046;4.854;2023-04-25T02:37:57;13.50;;;2.40;;
69678;SDS011;56915;52.046;4.854;2023-04-25T02:40:24;10.50;;;2.43;;
69678;SDS011;56915;52.046;4.854;2023-04-25T02:42:51;12.18;;;2.28;;
69678;SDS011;56915;52.046;4.854;2023-04-25T02:45:18;10.50;;;2.22;;
69678;SDS011;56915;52.046;4.854;2023-04-25T02:47:44;13.23;;;2.30;;
69678;SDS011;56915;52.046;4.854;2023-04-25T02:50:11;11.85;;;2.03;;
69678;SDS011;56915;52.046;4.854;2023-04-25T02:52:38;16.70;;;2.73;;
69678;SDS011;56915;52.046;4.854;2023-04-25T02:55:05;7.53;;;2.10;;
69678;SDS011;56915;52.046;4.854;2023-04-25T02:57:32;13.88;;;2.55;;
69678;SDS011;56915;52.046;4.854;2023-04-25T02:59:59;11.90;;;2.13;;
69678;SDS011;56915;52.046;4.854;2023-04-25T03:02:25;12.65;;;2.30;;
69678;SDS011;56915;52.046;4.854;2023-04-25T03:04:52;5.93;;;1.80;;
69678;SDS011;56915;52.046;4.854;2023-04-25T03:07:19;7.28;;;1.80;;
69678;SDS011;56915;52.046;4.854;2023-04-25T03:09:46;8.43;;;2.13;;
69678;SDS011;56915;52.046;4.854;2023-04-25T03:12:13;7.35;;;2.00;;
69678;SDS011;56915;52.046;4.854;2023-04-25T03:14:40;12.45;;;2.30;;
69678;SDS011;56915;52.046;4.854;2023-04-25T03:17:06;9.73;;;2.20;;
69678;SDS011;56915;52.046;4.854;2023-04-25T03:19:33;13.13;;;2.42;;
69678;SDS011;56915;52.046;4.854;2023-04-25T03:22:00;13.23;;;2.67;;
69678;SDS011;56915;52.046;4.854;2023-04-25T03:24:26;10.95;;;1.95;;
69678;SDS011;56915;52.046;4.854;2023-04-25T03:26:54;4.22;;;1.50;;
69678;SDS011;56915;52.046;4.854;2023-04-25T03:29:21;9.37;;;1.90;;
69678;SDS011;56915;52.046;4.854;2023-04-25T03:31:50;6.65;;;1.60;;
69678;SDS011;56915;52.046;4.854;2023-04-25T03:34:17;7.68;;;1.80;;
69678;SDS011;56915;52.046;4.854;2023-04-25T03:36:44;7.65;;;1.70;;
69678;SDS011;56915;52.046;4.854;2023-04-25T03:39:11;8.20;;;1.40;;
69678;SDS011;56915;52.046;4.854;2023-04-25T03:41:38;9.70;;;1.60;;
69678;SDS011;56915;52.046;4.854;2023-04-25T03:44:05;10.77;;;1.50;;
69678;SDS011;56915;52.046;4.854;2023-04-25T03:46:31;6.95;;;1.55;;
69678;SDS011;56915;52.046;4.854;2023-04-25T03:48:58;11.38;;;1.63;;
69678;SDS011;56915;52.046;4.854;2023-04-25T03:51:25;10.80;;;1.80;;
69678;SDS011;56915;52.046;4.854;2023-04-25T03:53:52;6.67;;;1.80;;
69678;SDS011;56915;52.046;4.854;2023-04-25T03:56:19;8.80;;;1.77;;
69678;SDS011;56915;52.046;4.854;2023-04-25T03:58:46;12.88;;;2.05;;
69678;SDS011;56915;52.046;4.854;2023-04-25T04:01:13;6.57;;;1.50;;
69678;SDS011;56915;52.046;4.854;2023-04-25T04:03:40;7.97;;;1.67;;
69678;SDS011;56915;52.046;4.854;2023-04-25T04:06:07;6.77;;;1.80;;
69678;SDS011;56915;52.046;4.854;2023-04-25T04:08:35;10.13;;;1.67;;
69678;SDS011;56915;52.046;4.854;2023-04-25T04:11:02;10.32;;;1.95;;
69678;SDS011;56915;52.046;4.854;2023-04-25T04:13:29;10.60;;;1.88;;
69678;SDS011;56915;52.046;4.854;2023-04-25T04:15:56;10.95;;;2.20;;
69678;SDS011;56915;52.046;4.854;2023-04-25T04:18:23;8.23;;;1.60;;
69678;SDS011;56915;52.046;4.854;2023-04-25T04:20:50;8.75;;;1.90;;
69678;SDS011;56915;52.046;4.854;2023-04-25T04:23:17;6.25;;;2.00;;
69678;SDS011;56915;52.046;4.854;2023-04-25T04:25:43;12.65;;;2.22;;
69678;SDS011;56915;52.046;4.854;2023-04-25T04:28:11;6.82;;;1.50;;
69678;SDS011;56915;52.046;4.854;2023-04-25T04:30:39;8.40;;;1.60;;
69678;SDS011;56915;52.046;4.854;2023-04-25T04:33:07;9.45;;;1.60;;
69678;SDS011;56915;52.046;4.854;2023-04-25T04:35:34;9.43;;;1.58;;
69678;SDS011;56915;52.046;4.854;2023-04-25T04:38:01;7.00;;;1.88;;
69678;SDS011;56915;52.046;4.854;2023-04-25T04:40:28;10.50;;;1.60;;
69678;SDS011;56915;52.046;4.854;2023-04-25T04:42:57;7.93;;;1.70;;
69678;SDS011;56915;52.046;4.854;2023-04-25T04:45:24;5.78;;;0.95;;
69678;SDS011;56915;52.046;4.854;2023-04-25T04:47:51;4.65;;;1.10;;
69678;SDS011;56915;52.046;4.854;2023-04-25T04:50:18;6.00;;;1.17;;
69678;SDS011;56915;52.046;4.854;2023-04-25T04:52:46;4.97;;;1.10;;
69678;SDS011;56915;52.046;4.854;2023-04-25T04:55:12;7.40;;;1.00;;
69678;SDS011;56915;52.046;4.854;2023-04-25T04:57:39;5.07;;;0.90;;
69678;SDS011;56915;52.046;4.854;2023-04-25T05:00:06;2.55;;;0.88;;
69678;SDS011;56915;52.046;4.854;2023-04-25T05:02:37;4.03;;;1.00;;
69678;SDS011;56915;52.046;4.854;2023-04-25T05:05:05;4.60;;;0.93;;
69678;SDS011;56915;52.046;4.854;2023-04-25T05:07:32;6.77;;;1.40;;
69678;SDS011;56915;52.046;4.854;2023-04-25T05:09:59;7.38;;;1.23;;
69678;SDS011;56915;52.046;4.854;2023-04-25T05:12:26;4.43;;;1.30;;
69678;SDS011;56915;52.046;4.854;2023-04-25T05:14:53;5.57;;;1.45;;
69678;SDS011;56915;52.046;4.854;2023-04-25T05:17:24;3.13;;;1.10;;
69678;SDS011;56915;52.046;4.854;2023-04-25T05:19:50;5.53;;;1.30;;
69678;SDS011;56915;52.046;4.854;2023-04-25T05:22:17;8.63;;;1.40;;
69678;SDS011;56915;52.046;4.854;2023-04-25T05:24:44;6.05;;;1.30;;
69678;SDS011;56915;52.046;4.854;2023-04-25T05:27:11;4.78;;;1.45;;
69678;SDS011;56915;52.046;4.854;2023-04-25T05:29:37;4.85;;;1.52;;
69678;SDS011;56915;52.046;4.854;2023-04-25T05:32:05;4.83;;;1.30;;
69678;SDS011;56915;52.046;4.854;2023-04-25T05:34:32;4.60;;;1.33;;
69678;SDS011;56915;52.046;4.854;2023-04-25T05:37:06;7.15;;;1.40;;
69678;SDS011;56915;52.046;4.854;2023-04-25T05:39:42;5.93;;;1.13;;
69678;SDS011;56915;52.046;4.854;2023-04-25T05:42:14;7.72;;;1.50;;
69678;SDS011;56915;52.046;4.854;2023-04-25T05:44:44;5.97;;;1.37;;
69678;SDS011;56915;52.046;4.854;2023-04-25T05:51:07;4.40;;;0.95;;
69678;SDS011;56915;52.046;4.854;2023-04-25T06:01:56;7.00;;;1.53;;
69678;SDS011;56915;52.046;4.854;2023-04-25T06:11:57;6.13;;;1.17;;
69678;SDS011;56915;52.046;4.854;2023-04-25T06:18:57;4.27;;;1.07;;
69678;SDS011;56915;52.046;4.854;2023-04-25T06:21:53;5.03;;;1.35;;
69678;SDS011;56915;52.046;4.854;2023-04-25T06:25:02;6.90;;;1.00;;
69678;SDS011;56915;52.046;4.854;2023-04-25T06:30:53;2.83;;;0.55;;
69678;SDS011;56915;52.046;4.854;2023-04-25T06:33:20;5.27;;;0.70;;
69678;SDS011;56915;52.046;4.854;2023-04-25T06:35:50;4.15;;;0.85;;
69678;SDS011;56915;52.046;4.854;2023-04-25T06:38:23;5.13;;;1.10;;
69678;SDS011;56915;52.046;4.854;2023-04-25T06:41:01;4.45;;;0.85;;
69678;SDS011;56915;52.046;4.854;2023-04-25T06:43:37;7.28;;;0.70;;
69678;SDS011;56915;52.046;4.854;2023-04-25T07:48:53;7.28;;;0.80;;
69678;SDS011;56915;52.046;4.854;2023-04-25T07:51:23;6.57;;;1.20;;
69678;SDS011;56915;52.046;4.854;2023-04-25T07:53:53;3.92;;;0.75;;
69678;SDS011;56915;52.046;4.854;2023-04-25T07:56:33;4.10;;;0.70;;
69678;SDS011;56915;52.046;4.854;2023-04-25T07:59:17;5.22;;;0.60;;
69678;SDS011;56915;52.046;4.854;2023-04-25T08:01:47;5.07;;;0.80;;
69678;SDS011;56915;52.046;4.854;2023-04-25T08:04:20;3.47;;;0.52;;
69678;SDS011;56915;52.046;4.854;2023-04-25T08:06:52;3.70;;;0.60;;
69678;SDS011;56915;52.046;4.854;2023-04-25T08:09:22;5.37;;;0.80;;
69678;SDS011;56915;52.046;4.854;2023-04-25T08:11:49;3.85;;;0.70;;
69678;SDS011;56915;52.046;4.854;2023-04-25T08:14:17;1.95;;;0.40;;
69678;SDS011;56915;52.046;4.854;2023-04-25T08:16:51;4.72;;;0.40;;
69678;SDS011;56915;52.046;4.854;2023-04-25T08:19:21;5.35;;;0.70;;
69678;SDS011;56915;52.046;4.854;2023-04-25T08:21:49;2.83;;;0.70;;
69678;SDS011;56915;52.046;4.854;2023-04-25T08:24:35;2.45;;;0.47;;
69678;SDS011;56915;52.046;4.854;2023-04-25T08:31:17;2.80;;;0.60;;
69678;SDS011;56915;52.046;4.854;2023-04-25T08:33:44;2.22;;;0.50;;
69678;SDS011;56915;52.046;4.854;2023-04-25T08:36:21;4.43;;;0.70;;
69678;SDS011;56915;52.046;4.854;2023-04-25T08:39:04;2.30;;;0.60;;
69678;SDS011;56915;52.046;4.854;2023-04-25T08:41:37;7.55;;;0.90;;
69678;SDS011;56915;52.046;4.854;2023-04-25T08:44:05;6.10;;;0.65;;
69678;SDS011;56915;52.046;4.854;2023-04-25T08:46:37;6.30;;;0.70;;
69678;SDS011;56915;52.046;4.854;2023-04-25T08:49:07;5.63;;;0.63;;
69678;SDS011;56915;52.046;4.854;2023-04-25T08:51:42;5.97;;;0.85;;
69678;SDS011;56915;52.046;4.854;2023-04-25T08:54:13;6.88;;;0.73;;
69678;SDS011;56915;52.046;4.854;2023-04-25T08:57:01;2.30;;;0.40;;
69678;SDS011;56915;52.046;4.854;2023-04-25T08:59:30;5.32;;;0.50;;
69678;SDS011;56915;52.046;4.854;2023-04-25T09:02:04;3.73;;;0.67;;
69678;SDS011;56915;52.046;4.854;2023-04-25T09:04:34;4.45;;;0.60;;
69678;SDS011;56915;52.046;4.854;2023-04-25T09:07:05;6.00;;;0.70;;
69678;SDS011;56915;52.046;4.854;2023-04-25T09:09:39;2.83;;;0.60;;
69678;SDS011;56915;52.046;4.854;2023-04-25T09:19:49;0.57;;;0.30;;
69678;SDS011;56915;52.046;4.854;2023-04-25T09:23:16;4.22;;;0.60;;
69678;SDS011;56915;52.046;4.854;2023-04-25T09:32:18;4.00;;;0.50;;
69678;SDS011;56915;52.046;4.854;2023-04-25T09:34:48;3.65;;;0.50;;
69678;SDS011;56915;52.046;4.854;2023-04-25T09:37:33;1.40;;;0.35;;
69678;SDS011;56915;52.046;4.854;2023-04-25T09:40:14;1.98;;;0.40;;
69678;SDS011;56915;52.046;4.854;2023-04-25T09:42:55;2.53;;;0.40;;
69678;SDS011;56915;52.046;4.854;2023-04-25T09:45:32;4.07;;;0.50;;
69678;SDS011;56915;52.046;4.854;2023-04-25T09:48:08;1.83;;;0.38;;
69678;SDS011;56915;52.046;4.854;2023-04-25T09:50:36;3.45;;;0.30;;
69678;SDS011;56915;52.046;4.854;2023-04-25T09:53:03;0.93;;;0.30;;
69678;SDS011;56915;52.046;4.854;2023-04-25T09:55:33;2.60;;;0.40;;
69678;SDS011;56915;52.046;4.854;2023-04-25T09:58:04;4.40;;;0.50;;
69678;SDS011;56915;52.046;4.854;2023-04-25T10:00:33;3.90;;;0.65;;
69678;SDS011;56915;52.046;4.854;2023-04-25T10:03:01;1.67;;;0.50;;
69678;SDS011;56915;52.046;4.854;2023-04-25T10:05:30;2.67;;;0.40;;
69678;SDS011;56915;52.046;4.854;2023-04-25T10:08:02;4.18;;;0.50;;
69678;SDS011;56915;52.046;4.854;2023-04-25T10:10:32;1.67;;;0.40;;
69678;SDS011;56915;52.046;4.854;2023-04-25T10:13:05;3.03;;;0.60;;
69678;SDS011;56915;52.046;4.854;2023-04-25T10:15:34;1.70;;;0.40;;
69678;SDS011;56915;52.046;4.854;2023-04-25T10:18:05;4.60;;;0.60;;
69678;SDS011;56915;52.046;4.854;2023-04-25T10:20:33;6.53;;;0.50;;
69678;SDS011;56915;52.046;4.854;2023-04-25T10:23:08;4.67;;;0.60;;
69678;SDS011;56915;52.046;4.854;2023-04-25T10:25:43;4.15;;;0.77;;
69678;SDS011;56915;52.046;4.854;2023-04-25T10:28:10;5.65;;;0.60;;
69678;SDS011;56915;52.046;4.854;2023-04-25T10:30:37;3.33;;;0.60;;
69678;SDS011;56915;52.046;4.854;2023-04-25T10:33:44;3.22;;;0.47;;
69678;SDS011;56915;52.046;4.854;2023-04-25T10:36:16;4.33;;;0.60;;
69678;SDS011;56915;52.046;4.854;2023-04-25T10:38:47;2.60;;;0.43;;
69678;SDS011;56915;52.046;4.854;2023-04-25T10:41:20;1.63;;;0.60;;
69678;SDS011;56915;52.046;4.854;2023-04-25T10:43:49;5.07;;;0.40;;
69678;SDS011;56915;52.046;4.854;2023-04-25T10:46:25;1.92;;;0.40;;
69678;SDS011;56915;52.046;4.854;2023-04-25T10:48:56;4.03;;;0.60;;
69678;SDS011;56915;52.046;4.854;2023-04-25T10:51:29;3.67;;;0.52;;
69678;SDS011;56915;52.046;4.854;2023-04-25T10:54:19;5.00;;;0.70;;
69678;SDS011;56915;52.046;4.854;2023-04-25T10:56:51;3.08;;;0.65;;
69678;SDS011;56915;52.046;4.854;2023-04-25T11:00:19;2.47;;;0.70;;
69678;SDS011;56915;52.046;4.854;2023-04-25T11:02:58;3.80;;;0.50;;
69678;SDS011;56915;52.046;4.854;2023-04-25T11:05:31;4.25;;;0.50;;
69678;SDS011;56915;52.046;4.854;2023-04-25T11:08:23;2.90;;;0.68;;
69678;SDS011;56915;52.046;4.854;2023-04-25T11:11:03;2.95;;;0.60;;
69678;SDS011;56915;52.046;4.854;2023-04-25T11:13:30;2.60;;;0.50;;
69678;SDS011;56915;52.046;4.854;2023-04-25T11:16:00;5.50;;;0.50;;
69678;SDS011;56915;52.046;4.854;2023-04-25T11:18:40;3.25;;;0.60;;
69678;SDS011;56915;52.046;4.854;2023-04-25T11:21:08;1.95;;;0.40;;
69678;SDS011;56915;52.046;4.854;2023-04-25T11:23:36;2.75;;;0.68;;
69678;SDS011;56915;52.046;4.854;2023-04-25T11:26:03;3.70;;;0.40;;
69678;SDS011;56915;52.046;4.854;2023-04-25T11:28:30;2.23;;;0.60;;
69678;SDS011;56915;52.046;4.854;2023-04-25T11:30:57;2.45;;;0.73;;
69678;SDS011;56915;52.046;4.854;2023-04-25T11:33:25;4.20;;;0.90;;
69678;SDS011;56915;52.046;4.854;2023-04-25T11:35:54;2.85;;;0.60;;
69678;SDS011;56915;52.046;4.854;2023-04-25T11:38:24;3.40;;;0.70;;
69678;SDS011;56915;52.046;4.854;2023-04-25T11:40:54;5.07;;;0.70;;
69678;SDS011;56915;52.046;4.854;2023-04-25T11:43:22;2.85;;;0.80;;
69678;SDS011;56915;52.046;4.854;2023-04-25T11:45:49;4.63;;;0.63;;
69678;SDS011;56915;52.046;4.854;2023-04-25T11:48:17;2.83;;;0.70;;
69678;SDS011;56915;52.046;4.854;2023-04-25T11:50:47;3.08;;;0.45;;
69678;SDS011;56915;52.046;4.854;2023-04-25T11:53:13;4.90;;;0.80;;
69678;SDS011;56915;52.046;4.854;2023-04-25T11:55:40;4.25;;;0.50;;
69678;SDS011;56915;52.046;4.854;2023-04-25T11:58:07;2.72;;;0.68;;
69678;SDS011;56915;52.046;4.854;2023-04-25T12:00:34;5.05;;;0.80;;
69678;SDS011;56915;52.046;4.854;2023-04-25T12:03:01;3.67;;;0.50;;
69678;SDS011;56915;52.046;4.854;2023-04-25T12:05:30;3.33;;;0.67;;
69678;SDS011;56915;52.046;4.854;2023-04-25T12:08:13;2.67;;;0.77;;
69678;SDS011;56915;52.046;4.854;2023-04-25T12:10:42;4.05;;;0.98;;
69678;SDS011;56915;52.046;4.854;2023-04-25T12:15:54;2.92;;;0.60;;
69678;SDS011;56915;52.046;4.854;2023-04-25T12:18:25;1.80;;;0.30;;
69678;SDS011;56915;52.046;4.854;2023-04-25T12:20:54;1.85;;;0.50;;
69678;SDS011;56915;52.046;4.854;2023-04-25T12:23:25;2.15;;;0.50;;
69678;SDS011;56915;52.046;4.854;2023-04-25T12:25:53;3.92;;;0.63;;
69678;SDS011;56915;52.046;4.854;2023-04-25T12:28:21;1.17;;;0.60;;
69678;SDS011;56915;52.046;4.854;2023-04-25T12:31:12;1.80;;;0.40;;
69678;SDS011;56915;52.046;4.854;2023-04-25T12:33:38;1.85;;;0.50;;
69678;SDS011;56915;52.046;4.854;2023-04-25T12:36:06;2.97;;;0.60;;
69678;SDS011;56915;52.046;4.854;2023-04-25T12:38:38;4.22;;;0.63;;
69678;SDS011;56915;52.046;4.854;2023-04-25T12:41:06;6.05;;;0.63;;
69678;SDS011;56915;52.046;4.854;2023-04-25T12:43:34;3.73;;;0.60;;
69678;SDS011;56915;52.046;4.854;2023-04-25T12:46:01;7.18;;;0.85;;
69678;SDS011;56915;52.046;4.854;2023-04-25T12:48:28;3.78;;;0.50;;
69678;SDS011;56915;52.046;4.854;2023-04-25T12:50:55;7.22;;;0.95;;
69678;SDS011;56915;52.046;4.854;2023-04-25T12:53:22;4.05;;;0.60;;
69678;SDS011;56915;52.046;4.854;2023-04-25T12:55:52;3.90;;;0.70;;
69678;SDS011;56915;52.046;4.854;2023-04-25T12:58:19;3.83;;;0.73;;
69678;SDS011;56915;52.046;4.854;2023-04-25T13:00:46;3.75;;;0.60;;
69678;SDS011;56915;52.046;4.854;2023-04-25T13:03:14;3.80;;;0.70;;
69678;SDS011;56915;52.046;4.854;2023-04-25T13:05:41;2.28;;;0.40;;
69678;SDS011;56915;52.046;4.854;2023-04-25T13:08:08;2.27;;;0.67;;
69678;SDS011;56915;52.046;4.854;2023-04-25T13:10:35;3.63;;;0.82;;
69678;SDS011;56915;52.046;4.854;2023-04-25T13:13:04;1.35;;;0.47;;
69678;SDS011;56915;52.046;4.854;2023-04-25T13:15:31;1.95;;;0.55;;
69678;SDS011;56915;52.046;4.854;2023-04-25T13:17:58;3.90;;;0.55;;
69678;SDS011;56915;52.046;4.854;2023-04-25T13:20:25;2.07;;;0.43;;
69678;SDS011;56915;52.046;4.854;2023-04-25T13:22:52;3.22;;;0.60;;
69678;SDS011;56915;52.046;4.854;2023-04-25T13:25:18;2.88;;;0.80;;
69678;SDS011;56915;52.046;4.854;2023-04-25T13:27:45;5.22;;;1.02;;
69678;SDS011;56915;52.046;4.854;2023-04-25T13:30:12;2.75;;;0.70;;
69678;SDS011;56915;52.046;4.854;2023-04-25T13:32:39;3.33;;;0.70;;
69678;SDS011;56915;52.046;4.854;2023-04-25T13:35:08;3.00;;;0.80;;
69678;SDS011;56915;52.046;4.854;2023-04-25T13:37:37;1.38;;;0.50;;
69678;SDS011;56915;52.046;4.854;2023-04-25T13:40:05;1.58;;;0.60;;
69678;SDS011;56915;52.046;4.854;2023-04-25T13:42:36;1.95;;;0.75;;
69678;SDS011;56915;52.046;4.854;2023-04-25T13:45:04;3.27;;;0.80;;
69678;SDS011;56915;52.046;4.854;2023-04-25T13:47:32;3.67;;;0.50;;
69678;SDS011;56915;52.046;4.854;2023-04-25T13:49:59;5.07;;;0.77;;
69678;SDS011;56915;52.046;4.854;2023-04-25T13:52:28;3.63;;;0.57;;
69678;SDS011;56915;52.046;4.854;2023-04-25T13:54:55;3.70;;;0.98;;
69678;SDS011;56915;52.046;4.854;2023-04-25T13:57:22;6.83;;;1.20;;
69678;SDS011;56915;52.046;4.854;2023-04-25T13:59:49;3.80;;;0.90;;
69678;SDS011;56915;52.046;4.854;2023-04-25T14:02:17;3.17;;;0.98;;
69678;SDS011;56915;52.046;4.854;2023-04-25T14:04:44;4.07;;;0.80;;
69678;SDS011;56915;52.046;4.854;2023-04-25T14:07:11;6.10;;;0.80;;
69678;SDS011;56915;52.046;4.854;2023-04-25T14:09:38;3.47;;;0.60;;
69678;SDS011;56915;52.046;4.854;2023-04-25T14:12:04;4.78;;;0.88;;
69678;SDS011;56915;52.046;4.854;2023-04-25T14:14:32;4.47;;;0.80;;
69678;SDS011;56915;52.046;4.854;2023-04-25T14:16:59;2.60;;;0.50;;
69678;SDS011;56915;52.046;4.854;2023-04-25T14:19:26;2.55;;;0.80;;
69678;SDS011;56915;52.046;4.854;2023-04-25T14:21:53;3.67;;;1.00;;
69678;SDS011;56915;52.046;4.854;2023-04-25T14:24:21;4.15;;;0.80;;
69678;SDS011;56915;52.046;4.854;2023-04-25T14:26:47;1.20;;;0.60;;
69678;SDS011;56915;52.046;4.854;2023-04-25T14:29:15;3.08;;;0.73;;
69678;SDS011;56915;52.046;4.854;2023-04-25T14:31:42;2.80;;;0.73;;
69678;SDS011;56915;52.046;4.854;2023-04-25T14:34:09;2.60;;;0.67;;
69678;SDS011;56915;52.046;4.854;2023-04-25T14:36:37;3.10;;;0.60;;
69678;SDS011;56915;52.046;4.854;2023-04-25T14:39:03;2.60;;;0.60;;
69678;SDS011;56915;52.046;4.854;2023-04-25T14:41:35;1.85;;;0.80;;
69678;SDS011;56915;52.046;4.854;2023-04-25T14:44:02;3.20;;;0.60;;
69678;SDS011;56915;52.046;4.854;2023-04-25T14:46:29;2.63;;;0.60;;
69678;SDS011;56915;52.046;4.854;2023-04-25T14:48:57;2.67;;;0.82;;
69678;SDS011;56915;52.046;4.854;2023-04-25T14:51:24;2.38;;;0.55;;
69678;SDS011;56915;52.046;4.854;2023-04-25T14:53:52;1.60;;;0.50;;
69678;SDS011;56915;52.046;4.854;2023-04-25T14:56:19;3.42;;;0.80;;
69678;SDS011;56915;52.046;4.854;2023-04-25T14:58:46;2.80;;;0.80;;
69678;SDS011;56915;52.046;4.854;2023-04-25T15:01:13;2.47;;;0.70;;
69678;SDS011;56915;52.046;4.854;2023-04-25T15:03:40;3.83;;;0.82;;
69678;SDS011;56915;52.046;4.854;2023-04-25T15:06:08;4.47;;;0.60;;
69678;SDS011;56915;52.046;4.854;2023-04-25T15:08:36;2.88;;;0.98;;
69678;SDS011;56915;52.046;4.854;2023-04-25T15:11:03;5.07;;;0.80;;
69678;SDS011;56915;52.046;4.854;2023-04-25T15:13:30;2.47;;;0.82;;
69678;SDS011;56915;52.046;4.854;2023-04-25T15:15:57;1.17;;;0.50;;
69678;SDS011;56915;52.046;4.854;2023-04-25T15:18:24;2.60;;;0.60;;
69678;SDS011;56915;52.046;4.854;2023-04-25T15:20:51;5.22;;;1.30;;
69678;SDS011;56915;52.046;4.854;2023-04-25T15:23:19;4.82;;;0.98;;
69678;SDS011;56915;52.046;4.854;2023-04-25T15:25:49;4.78;;;1.27;;
69678;SDS011;56915;52.046;4.854;2023-04-25T15:28:16;4.15;;;1.30;;
69678;SDS011;56915;52.046;4.854;2023-04-25T15:30:43;5.35;;;1.20;;
69678;SDS011;56915;52.046;4.854;2023-04-25T15:33:11;6.20;;;1.30;;
69678;SDS011;56915;52.046;4.854;2023-04-25T15:35:38;5.27;;;1.10;;
69678;SDS011;56915;52.046;4.854;2023-04-25T15:38:05;5.70;;;1.17;;
69678;SDS011;56915;52.046;4.854;2023-04-25T15:40:32;4.18;;;1.00;;
69678;SDS011;56915;52.046;4.854;2023-04-25T15:42:59;4.75;;;1.00;;
69678;SDS011;56915;52.046;4.854;2023-04-25T15:45:26;3.95;;;0.90;;
69678;SDS011;56915;52.046;4.854;2023-04-25T15:47:54;3.72;;;0.80;;
69678;SDS011;56915;52.046;4.854;2023-04-25T15:50:22;7.15;;;1.30;;
69678;SDS011;56915;52.046;4.854;2023-04-25T15:52:50;4.18;;;1.20;;
69678;SDS011;56915;52.046;4.854;2023-04-25T15:55:18;2.25;;;0.80;;
69678;SDS011;56915;52.046;4.854;2023-04-25T15:57:48;5.78;;;1.20;;
69678;SDS011;56915;52.046;4.854;2023-04-25T16:00:16;6.63;;;1.23;;
69678;SDS011;56915;52.046;4.854;2023-04-25T16:02:45;6.18;;;1.42;;
69678;SDS011;56915;52.046;4.854;2023-04-25T16:05:13;4.32;;;1.08;;
69678;SDS011;56915;52.046;4.854;2023-04-25T16:07:42;3.72;;;1.10;;
69678;SDS011;56915;52.046;4.854;2023-04-25T16:10:10;2.85;;;1.00;;
69678;SDS011;56915;52.046;4.854;2023-04-25T16:12:38;3.17;;;0.98;;
69678;SDS011;56915;52.046;4.854;2023-04-25T16:15:06;3.38;;;1.00;;
69678;SDS011;56915;52.046;4.854;2023-04-25T16:17:33;2.92;;;0.90;;
69678;SDS011;56915;52.046;4.854;2023-04-25T16:20:00;3.20;;;1.10;;
69678;SDS011;56915;52.046;4.854;2023-04-25T16:22:31;4.03;;;1.08;;
69678;SDS011;56915;52.046;4.854;2023-04-25T16:24:58;2.95;;;1.20;;
69678;SDS011;56915;52.046;4.854;2023-04-25T16:27:25;3.17;;;1.20;;
69678;SDS011;56915;52.046;4.854;2023-04-25T16:29:52;4.63;;;1.10;;
69678;SDS011;56915;52.046;4.854;2023-04-25T16:32:18;3.78;;;1.08;;
69678;SDS011;56915;52.046;4.854;2023-04-25T16:34:45;3.63;;;0.90;;
69678;SDS011;56915;52.046;4.854;2023-04-25T16:37:12;6.50;;;1.10;;
69678;SDS011;56915;52.046;4.854;2023-04-25T16:39:39;6.82;;;1.50;;
69678;SDS011;56915;52.046;4.854;2023-04-25T16:42:06;4.43;;;1.00;;
69678;SDS011;56915;52.046;4.854;2023-04-25T16:47:18;7.22;;;1.10;;
69678;SDS011;56915;52.046;4.854;2023-04-25T16:49:46;6.13;;;1.27;;
69678;SDS011;56915;52.046;4.854;2023-04-25T16:52:13;3.08;;;0.70;;